Skip Navigation Links Skip Navigation Links

Current Weather

Dutchess County, Poughkeepsie, N.Y.

For information only: do not use for flight planning or navigation.
Latest weather
Observation time Wednesday, August 12, 2020 1:53 PM EDT
Local time Wednesday, August 12, 2020 2:50 PM EDT
Flight conditions Visual Meteorological Conditions
Winds
Wind direction North-Northwest (340°)
Wind speed 5 mph
Visibility 10 mi.
Sky condition
Ceiling unlimited
Cloud layer few clouds 6,000 ft.
Temperature 88°F
Dewpoint 70°F
Altimeter 30.01 in.Hg
Pressure change last 3 hours0.02 in.Hg
Pressure falling more quickly
Derived measurements
Relative humidity 55%
Heat index 93°F
Density altitude 2243 ft.
Sea-level pressure 30.00 in.Hg
Climate data
Temperature minimum, last 6 hours 73°F
Temperature maximum, last 6 hours 88°F
Remarks
Automated weather observing station with precipitation discriminator.
METAR KPOU 121753Z 34004KT 10SM FEW060 31/21 A3001 RMK AO2 SLP160 T03110211 10311 20228 58007

Settings

Location code

InnerDrive.Weather 4.0.6770.0 Release CLR 4.0.30319.42000
Copyright ©2018 Inner Drive Technology. All rights reserved. Portions Copyright ©1986-2018 David Braverman.

Find weather

Site navigation


Skip Navigation Links

Place info

Page info

PayPal - The safer, easier way to pay online!

Return home.

Copyright ©2020 Inner Drive Technology. Purveyors of fine, hand-crafted computer software. Page printed 2020-08-12T18:50:16 UTC.